Time;durP1;ratioP1;P1;durP2;ratioP2;P2;SDS_P1;SDS_P2;PMS_P1;PMS_P2;Temp;Humidity;BMP_temperature;BMP_pressure;BME280_temperature;BME280_humidity;BME280_pressure;Samples;Min_cycle;Max_cycle;Signal;HPM_P1;HPM_P2
2021/06/03 00:00:59;;;;;;;12.67;6.00;;;8.00;1.00;;;;;;5034311;28;20202;-94
2021/06/03 00:03:46;;;;;;;10.57;5.80;;;8.00;1.00;;;;;;5034074;28;20216;-94
2021/06/03 00:06:33;;;;;;;10.93;5.10;;;8.00;1.00;;;;;;5034294;28;20563;-95
2021/06/03 00:09:21;;;;;;;12.50;5.17;;;7.90;1.00;;;;;;5033813;28;20278;-95
2021/06/03 00:12:12;;;;;;;12.43;5.13;;;8.00;1.00;;;;;;5033419;28;20209;-92
2021/06/03 00:14:59;;;;;;;14.50;5.43;;;8.00;1.00;;;;;;5033796;28;20198;-95
2021/06/03 00:17:46;;;;;;;12.00;5.20;;;7.90;1.00;;;;;;5034543;28;20229;-95
2021/06/03 00:20:34;;;;;;;10.37;5.13;;;7.90;1.00;;;;;;5032672;28;20562;-95
2021/06/03 00:23:20;;;;;;;11.67;5.80;;;7.90;1.00;;;;;;5034176;28;20198;-95
2021/06/03 00:26:08;;;;;;;11.10;5.57;;;7.90;1.00;;;;;;5034497;28;20202;-95
2021/06/03 00:28:56;;;;;;;9.80;5.63;;;7.90;1.00;;;;;;5034123;28;20197;-96
2021/06/03 00:31:44;;;;;;;9.77;4.77;;;7.80;1.00;;;;;;5033812;28;20202;-95
2021/06/03 00:34:31;;;;;;;14.07;4.90;;;7.80;1.00;;;;;;5033685;28;20205;-95
2021/06/03 00:37:18;;;;;;;11.77;5.47;;;7.80;1.00;;;;;;5032489;28;20237;-96
2021/06/03 00:40:07;;;;;;;10.30;4.97;;;7.80;1.00;;;;;;5033768;28;20298;-95
2021/06/03 00:42:54;;;;;;;8.70;4.90;;;7.80;1.00;;;;;;5018756;28;20198;-95
2021/06/03 00:45:42;;;;;;;14.87;5.13;;;7.70;1.00;;;;;;5032508;28;20229;-95
2021/06/03 00:48:29;;;;;;;12.67;5.13;;;7.70;1.00;;;;;;5033038;28;20202;-95
2021/06/03 00:51:16;;;;;;;12.20;5.00;;;7.70;1.00;;;;;;5032693;28;20216;-96
2021/06/03 00:54:03;;;;;;;15.37;4.80;;;7.70;1.00;;;;;;5033498;28;20229;-95
2021/06/03 00:56:50;;;;;;;10.30;4.97;;;7.70;1.00;;;;;;5033624;28;20194;-95
2021/06/03 00:59:37;;;;;;;9.03;4.57;;;7.70;1.00;;;;;;5028483;28;20214;-96
2021/06/03 01:02:26;;;;;;;7.93;4.70;;;7.70;1.00;;;;;;5032993;28;20702;-95
2021/06/03 01:05:15;;;;;;;10.00;4.90;;;7.60;1.00;;;;;;5033344;28;20233;-95
2021/06/03 01:08:03;;;;;;;6.83;4.40;;;7.60;1.00;;;;;;5034740;28;20249;-96
2021/06/03 01:10:53;;;;;;;8.50;4.27;;;7.60;1.00;;;;;;5035190;28;20679;-96
2021/06/03 01:13:45;;;;;;;13.20;4.47;;;7.60;1.00;;;;;;5033275;28;20656;-95
2021/06/03 01:16:32;;;;;;;9.27;4.53;;;7.60;1.00;;;;;;5021243;28;20202;-95
2021/06/03 01:19:25;;;;;;;8.23;4.63;;;7.60;1.00;;;;;;5032701;28;20221;-95
2021/06/03 01:22:13;;;;;;;9.00;4.43;;;7.60;1.00;;;;;;5035006;28;20611;-94
2021/06/03 01:25:02;;;;;;;14.40;4.60;;;7.60;1.00;;;;;;5042183;28;20198;-96
2021/06/03 01:27:49;;;;;;;13.60;4.37;;;7.60;1.00;;;;;;5035032;28;20217;-96
2021/06/03 01:30:37;;;;;;;8.73;4.63;;;7.60;1.00;;;;;;5034730;28;20205;-95
2021/06/03 01:33:26;;;;;;;6.30;4.13;;;7.50;1.00;;;;;;5032479;28;20198;-96
2021/06/03 01:36:14;;;;;;;6.67;4.17;;;7.50;1.00;;;;;;5033632;28;20293;-96
2021/06/03 01:39:01;;;;;;;7.67;4.20;;;7.50;1.00;;;;;;5033028;28;20225;-96
2021/06/03 01:41:50;;;;;;;8.33;4.13;;;7.50;1.00;;;;;;5021762;28;20722;-96
2021/06/03 01:44:37;;;;;;;7.90;4.40;;;7.40;1.00;;;;;;5035230;28;20213;-95
2021/06/03 01:47:24;;;;;;;7.23;4.27;;;7.40;1.00;;;;;;5025062;28;20233;-96
2021/06/03 01:50:11;;;;;;;8.07;3.93;;;7.40;1.00;;;;;;5018983;28;20611;-96
2021/06/03 01:52:59;;;;;;;12.97;4.07;;;7.40;1.00;;;;;;5022787;28;20194;-96
2021/06/03 01:55:46;;;;;;;10.83;4.43;;;7.40;1.00;;;;;;5024498;28;20206;-96
2021/06/03 01:58:34;;;;;;;7.87;4.33;;;7.40;1.00;;;;;;5028473;28;20217;-95
2021/06/03 02:01:21;;;;;;;9.07;4.70;;;7.30;1.00;;;;;;5033443;28;20218;-96
2021/06/03 02:04:10;;;;;;;10.57;4.00;;;7.30;1.00;;;;;;5031971;28;20246;-96
2021/06/03 02:06:57;;;;;;;7.67;4.07;;;7.30;1.00;;;;;;5033248;28;20232;-96
2021/06/03 02:09:45;;;;;;;8.63;4.27;;;7.30;1.00;;;;;;5033803;28;20200;-95
2021/06/03 02:12:37;;;;;;;6.23;3.60;;;7.30;1.00;;;;;;5016347;28;20202;-95
2021/06/03 02:15:25;;;;;;;8.07;4.27;;;7.20;1.00;;;;;;5024032;28;20707;-96
2021/06/03 02:18:13;;;;;;;8.17;3.80;;;7.30;1.00;;;;;;5041083;28;20232;-96
2021/06/03 02:21:00;;;;;;;6.27;3.83;;;7.20;1.00;;;;;;5041086;28;20194;-96
2021/06/03 02:23:48;;;;;;;6.97;3.60;;;7.20;1.00;;;;;;5039509;28;20202;-96
2021/06/03 02:26:35;;;;;;;7.60;4.07;;;7.20;1.00;;;;;;5049745;28;20202;-96
2021/06/03 02:29:22;;;;;;;7.70;4.00;;;7.20;1.00;;;;;;4999300;28;20191;-96
2021/06/03 02:32:11;;;;;;;6.27;3.90;;;7.20;1.00;;;;;;4999017;28;20199;-96
2021/06/03 02:34:58;;;;;;;9.07;3.70;;;7.10;1.00;;;;;;4998269;28;20203;-96
2021/06/03 02:37:45;;;;;;;11.50;4.10;;;7.20;1.00;;;;;;5017742;28;20261;-96
2021/06/03 02:40:32;;;;;;;5.60;3.67;;;7.20;1.00;;;;;;5018810;28;20222;-96
2021/06/03 02:43:19;;;;;;;8.00;4.40;;;7.20;1.00;;;;;;5023563;28;20233;-95
2021/06/03 02:46:06;;;;;;;7.37;4.00;;;7.20;1.00;;;;;;5024492;28;20210;-96
2021/06/03 02:48:55;;;;;;;6.80;4.23;;;7.20;1.00;;;;;;5027591;28;20229;-96
2021/06/03 02:51:42;;;;;;;13.47;4.40;;;7.20;1.00;;;;;;5020382;28;20203;-96
2021/06/03 02:54:29;;;;;;;7.13;3.60;;;7.20;1.00;;;;;;5021931;28;20248;-96
2021/06/03 02:57:16;;;;;;;6.60;3.77;;;7.20;1.00;;;;;;5027858;28;20277;-96
2021/06/03 03:00:06;;;;;;;7.87;3.97;;;7.20;1.00;;;;;;5017942;28;20265;-96
2021/06/03 03:02:53;;;;;;;5.90;3.80;;;7.30;1.00;;;;;;5028957;28;20194;-96
2021/06/03 03:05:42;;;;;;;9.57;3.97;;;7.30;1.00;;;;;;5022550;28;20257;-96
2021/06/03 03:08:29;;;;;;;10.43;3.97;;;7.40;1.00;;;;;;5029777;28;20222;-96
2021/06/03 03:11:16;;;;;;;7.23;4.13;;;7.40;1.00;;;;;;5023803;28;20687;-96
2021/06/03 03:14:03;;;;;;;10.57;3.67;;;7.50;1.00;;;;;;5034088;28;20199;-96
2021/06/03 03:16:51;;;;;;;6.83;3.83;;;7.50;1.00;;;;;;5031175;28;20280;-96
2021/06/03 03:19:38;;;;;;;10.57;3.80;;;7.60;1.00;;;;;;5027434;28;20224;-96
2021/06/03 03:22:27;;;;;;;6.70;3.77;;;7.70;1.00;;;;;;5041128;28;20673;-96
2021/06/03 03:25:15;;;;;;;7.27;3.90;;;7.70;1.00;;;;;;5042312;28;20226;-96
2021/06/03 03:28:02;;;;;;;5.67;3.63;;;7.80;1.00;;;;;;5032374;28;20201;-96
2021/06/03 03:30:49;;;;;;;9.70;4.30;;;7.90;1.00;;;;;;5001107;28;20230;-96
2021/06/03 03:33:36;;;;;;;7.80;3.80;;;8.00;1.00;;;;;;5031429;28;20208;-96
2021/06/03 03:36:24;;;;;;;9.63;4.10;;;8.20;1.00;;;;;;5038891;28;20202;-96
2021/06/03 03:39:12;;;;;;;7.70;4.30;;;8.30;1.00;;;;;;5020912;28;20229;-95
2021/06/03 03:41:59;;;;;;;7.47;3.60;;;8.50;1.00;;;;;;5019565;28;20680;-96
2021/06/03 03:44:46;;;;;;;9.50;4.10;;;8.70;1.00;;;;;;4999163;28;20238;-95
2021/06/03 03:47:33;;;;;;;10.13;3.97;;;8.80;1.00;;;;;;5011108;28;20233;-96
2021/06/03 03:50:21;;;;;;;9.93;4.17;;;9.00;1.00;;;;;;5051406;28;20221;-96
2021/06/03 03:53:08;;;;;;;6.00;3.40;;;9.20;1.00;;;;;;5036230;28;20199;-96
2021/06/03 03:55:56;;;;;;;8.27;4.10;;;9.40;1.00;;;;;;5037060;28;20263;-96
2021/06/03 03:58:43;;;;;;;10.67;3.67;;;9.50;1.00;;;;;;5035182;28;20221;-96
2021/06/03 04:01:30;;;;;;;8.20;3.90;;;9.70;99.90;;;;;;5037013;28;20205;-96
2021/06/03 04:04:18;;;;;;;9.47;4.33;;;9.80;99.90;;;;;;5035835;28;20228;-95
2021/06/03 04:07:05;;;;;;;11.57;4.30;;;9.90;99.90;;;;;;5052074;28;20197;-96
2021/06/03 04:09:52;;;;;;;7.50;4.27;;;10.10;99.90;;;;;;5016599;28;20228;-96
2021/06/03 04:12:41;;;;;;;8.90;4.23;;;10.20;99.90;;;;;;5023289;28;20213;-96
2021/06/03 04:15:28;;;;;;;10.87;5.00;;;10.40;99.90;;;;;;5048956;28;20203;-96
2021/06/03 04:18:15;;;;;;;11.33;5.07;;;10.60;79.80;;;;;;5055143;28;20202;-96
2021/06/03 04:21:02;;;;;;;13.97;5.60;;;10.90;1.00;;;;;;5040300;28;20226;-95
2021/06/03 04:23:49;;;;;;;12.03;6.03;;;11.00;1.00;;;;;;5054170;28;20192;-95
2021/06/03 04:26:36;;;;;;;10.13;5.50;;;11.30;1.00;;;;;;5031066;28;20263;-95
2021/06/03 04:29:25;;;;;;;10.80;5.30;;;11.50;99.90;;;;;;5047569;28;20614;-96
2021/06/03 04:32:12;;;;;;;10.40;5.57;;;11.70;99.90;;;;;;5036333;28;20271;-96
2021/06/03 04:34:59;;;;;;;10.57;5.30;;;11.90;1.00;;;;;;5020337;28;20205;-96
2021/06/03 04:37:46;;;;;;;10.87;5.30;;;12.00;99.90;;;;;;5054606;28;20205;-96
2021/06/03 04:40:34;;;;;;;15.13;4.83;;;12.20;59.80;;;;;;5046029;28;20247;-96
2021/06/03 04:43:21;;;;;;;8.40;4.37;;;12.40;1.00;;;;;;5035242;28;20610;-96
2021/06/03 04:46:09;;;;;;;11.33;4.70;;;12.50;1.00;;;;;;5035164;28;20224;-96
2021/06/03 04:48:56;;;;;;;9.73;4.50;;;12.70;1.00;;;;;;5036754;28;20201;-96
2021/06/03 04:51:43;;;;;;;7.67;4.63;;;12.90;1.00;;;;;;5037354;28;20209;-96
2021/06/03 04:54:31;;;;;;;10.70;4.13;;;13.00;1.00;;;;;;5035873;28;20674;-96
2021/06/03 04:57:18;;;;;;;9.80;3.77;;;13.20;68.60;;;;;;5022827;28;20656;-96
2021/06/03 05:00:07;;;;;;;8.67;3.70;;;13.30;99.90;;;;;;5028311;28;20556;-96
2021/06/03 05:02:55;;;;;;;5.57;3.83;;;13.50;1.00;;;;;;5004933;28;20207;-95
2021/06/03 05:05:42;;;;;;;7.97;3.57;;;13.70;99.90;;;;;;5035081;28;20225;-95
2021/06/03 05:08:30;;;;;;;4.83;3.40;;;13.80;1.00;;;;;;5018808;28;20194;-96
2021/06/03 05:11:17;;;;;;;7.40;3.80;;;13.90;1.00;;;;;;5027399;28;20233;-94
2021/06/03 05:14:04;;;;;;;8.17;3.30;;;14.10;99.90;;;;;;5020201;28;20200;-95
2021/06/03 05:16:51;;;;;;;5.33;3.20;;;14.20;19.90;;;;;;5020029;28;20278;-95
2021/06/03 05:19:41;;;;;;;11.07;3.43;;;14.40;1.00;;;;;;4996425;28;20218;-96
2021/06/03 05:22:28;;;;;;;5.50;3.07;;;14.50;99.90;;;;;;5012097;28;20215;-96
2021/06/03 05:25:17;;;;;;;8.33;3.50;;;14.60;99.90;;;;;;5015705;28;20195;-95
2021/06/03 05:28:04;;;;;;;6.50;2.90;;;14.80;99.90;;;;;;5025114;28;20587;-95
2021/06/03 05:30:51;;;;;;;5.73;3.07;;;14.90;1.00;;;;;;5015674;28;20248;-95
2021/06/03 05:33:38;;;;;;;5.53;2.90;;;15.00;1.00;;;;;;5027299;28;20213;-94
2021/06/03 05:36:27;;;;;;;6.17;2.50;;;15.10;1.00;;;;;;5029013;28;20562;-95
2021/06/03 05:39:14;;;;;;;6.93;3.10;;;15.30;1.00;;;;;;5034967;28;20280;-94
2021/06/03 05:42:01;;;;;;;8.50;2.90;;;15.40;99.90;;;;;;5027545;28;20201;-95
2021/06/03 05:44:48;;;;;;;7.97;2.90;;;15.50;99.90;;;;;;5014562;28;20196;-94
2021/06/03 05:47:36;;;;;;;4.23;2.80;;;15.70;99.90;;;;;;5028331;28;20238;-94
2021/06/03 05:50:24;;;;;;;5.87;3.13;;;15.80;99.90;;;;;;5033072;28;20208;-95
2021/06/03 05:53:12;;;;;;;9.73;2.93;;;15.90;99.90;;;;;;5031734;28;20205;-95
2021/06/03 05:55:59;;;;;;;5.47;2.50;;;16.10;99.90;;;;;;5032547;28;20660;-95
2021/06/03 05:58:46;;;;;;;4.30;2.70;;;16.30;99.90;;;;;;5034965;28;20208;-96
2021/06/03 06:01:34;;;;;;;6.70;3.07;;;16.40;99.90;;;;;;5040196;28;20204;-95
2021/06/03 06:07:26;;;;;;;4.87;3.17;;;16.60;99.90;;;;;;5038129;28;20201;-96
2021/06/03 06:10:15;;;;;;;5.33;3.10;;;16.80;99.90;;;;;;5037642;28;20207;-96
2021/06/03 06:13:02;;;;;;;4.97;2.67;;;16.80;99.90;;;;;;5038304;28;20256;-96
2021/06/03 06:15:49;;;;;;;5.50;2.83;;;16.90;99.90;;;;;;5035939;28;20549;-95
2021/06/03 06:18:37;;;;;;;4.60;2.70;;;17.00;95.60;;;;;;5032203;28;20208;-96
2021/06/03 06:21:25;;;;;;;11.83;3.37;;;17.10;92.30;;;;;;5020200;28;20204;-96
2021/06/03 06:24:14;;;;;;;8.23;2.73;;;17.30;77.40;;;;;;5037861;28;20215;-94
2021/06/03 06:27:03;;;;;;;5.73;2.70;;;17.40;38.80;;;;;;5011532;28;20649;-95
2021/06/03 06:29:50;;;;;;;6.73;2.60;;;17.50;27.70;;;;;;5037599;28;20621;-95
2021/06/03 06:32:39;;;;;;;4.20;2.27;;;17.50;25.10;;;;;;5030235;28;20209;-95
2021/06/03 06:35:27;;;;;;;6.07;2.47;;;17.50;1.00;;;;;;5036730;28;20666;-96
2021/06/03 06:38:14;;;;;;;7.10;2.67;;;17.60;1.00;;;;;;5026352;28;20205;-95
2021/06/03 06:41:01;;;;;;;7.30;2.90;;;17.70;1.00;;;;;;5017134;28;20584;-95
2021/06/03 06:43:49;;;;;;;8.77;3.00;;;17.80;1.00;;;;;;5021617;28;20202;-94
2021/06/03 06:46:37;;;;;;;4.90;2.70;;;17.90;1.00;;;;;;5028005;28;20247;-95
2021/06/03 06:49:24;;;;;;;4.03;2.70;;;18.00;1.00;;;;;;5016685;28;20200;-94
2021/06/03 06:52:11;;;;;;;4.83;2.73;;;18.00;1.00;;;;;;5011879;28;20209;-95
2021/06/03 06:54:58;;;;;;;6.20;2.87;;;18.10;1.00;;;;;;5016530;28;20682;-95
2021/06/03 06:57:45;;;;;;;4.77;2.43;;;18.30;1.00;;;;;;5016375;28;20194;-95
2021/06/03 07:00:35;;;;;;;4.30;2.50;;;18.30;1.00;;;;;;4996941;28;20215;-94
2021/06/03 07:03:22;;;;;;;6.37;2.80;;;18.50;1.00;;;;;;4997069;28;20207;-94
2021/06/03 07:06:09;;;;;;;4.90;2.53;;;18.70;1.00;;;;;;4999702;28;20191;-95
2021/06/03 07:08:56;;;;;;;4.97;2.80;;;18.80;1.00;;;;;;5015168;28;20199;-95
2021/06/03 07:11:44;;;;;;;10.03;2.73;;;18.80;1.00;;;;;;5015503;28;20260;-95
2021/06/03 07:14:31;;;;;;;4.30;2.40;;;19.10;1.00;;;;;;5016166;28;20281;-94
2021/06/03 07:17:19;;;;;;;3.37;2.57;;;19.20;1.00;;;;;;5016050;28;20210;-95
2021/06/03 07:20:10;;;;;;;4.77;2.50;;;19.30;1.00;;;;;;5015353;28;20231;-95
2021/06/03 07:23:00;;;;;;;6.23;2.83;;;19.50;1.00;;;;;;5015621;28;20250;-94
2021/06/03 07:25:47;;;;;;;5.83;2.40;;;19.70;1.00;;;;;;5013468;28;20657;-93
2021/06/03 07:28:34;;;;;;;3.53;2.10;;;19.80;1.00;;;;;;5015016;28;20212;-92
2021/06/03 07:31:24;;;;;;;4.27;2.23;;;19.80;1.00;;;;;;5010092;28;20553;-91
2021/06/03 07:34:13;;;;;;;4.07;2.23;;;20.00;1.00;;;;;;5014103;28;20204;-91
2021/06/03 07:37:00;;;;;;;5.50;2.47;;;20.00;1.00;;;;;;5005942;28;20197;-90
2021/06/03 07:39:47;;;;;;;5.13;2.40;;;20.00;1.00;;;;;;4998205;28;20293;-89
2021/06/03 07:42:34;;;;;;;6.43;2.57;;;20.20;1.00;;;;;;5015165;28;20197;-90
2021/06/03 07:45:42;;;;;;;6.37;2.13;;;20.40;1.00;;;;;;5014203;28;20229;-91
2021/06/03 07:48:29;;;;;;;7.87;2.20;;;20.60;1.00;;;;;;5026301;28;20290;-89
2021/06/03 07:51:18;;;;;;;7.37;2.03;;;20.70;1.00;;;;;;5034632;28;20200;-90
2021/06/03 07:54:05;;;;;;;4.07;2.00;;;20.70;1.00;;;;;;5034579;28;20211;-89
2021/06/03 07:56:52;;;;;;;4.53;2.40;;;20.90;1.00;;;;;;5034672;28;20244;-90
2021/06/03 07:59:39;;;;;;;4.83;2.10;;;20.90;1.00;;;;;;5035421;28;20608;-91
2021/06/03 08:02:26;;;;;;;2.80;1.77;;;21.00;1.00;;;;;;5033804;28;20647;-90
2021/06/03 08:05:14;;;;;;;4.10;2.00;;;21.20;1.00;;;;;;5023141;28;20570;-89
2021/06/03 08:08:03;;;;;;;3.03;2.13;;;21.20;1.00;;;;;;5033906;28;20197;-90
2021/06/03 08:10:50;;;;;;;6.73;2.00;;;21.40;1.00;;;;;;5034334;28;20564;-91
2021/06/03 08:13:37;;;;;;;4.03;1.80;;;21.60;1.00;;;;;;5034874;28;20204;-91
2021/06/03 08:16:24;;;;;;;2.47;1.83;;;21.70;1.00;;;;;;5033168;28;20655;-90
2021/06/03 08:19:12;;;;;;;2.33;1.60;;;21.80;1.00;;;;;;5035188;28;20198;-91
2021/06/03 08:21:59;;;;;;;3.40;1.50;;;21.90;1.00;;;;;;5034055;28;20202;-91
2021/06/03 08:24:47;;;;;;;2.73;1.67;;;21.90;1.00;;;;;;5010782;28;20611;-92
2021/06/03 08:27:34;;;;;;;3.87;1.80;;;21.90;1.00;;;;;;5011348;28;20197;-91
2021/06/03 08:30:22;;;;;;;3.53;1.90;;;22.00;1.00;;;;;;5033765;28;20201;-92
2021/06/03 08:33:09;;;;;;;3.60;1.70;;;22.10;1.00;;;;;;5033827;28;20660;-91
2021/06/03 08:35:56;;;;;;;3.50;1.97;;;22.00;1.00;;;;;;5034994;28;20198;-92
2021/06/03 08:38:43;;;;;;;7.00;1.90;;;22.10;1.00;;;;;;5034649;28;20194;-92
2021/06/03 08:41:35;;;;;;;3.20;1.70;;;22.40;1.00;;;;;;5034128;28;20194;-92
2021/06/03 08:44:22;;;;;;;2.90;1.77;;;22.30;1.00;;;;;;5033988;28;20289;-93
2021/06/03 08:47:09;;;;;;;3.80;2.03;;;22.20;1.00;;;;;;5030579;28;20742;-93
2021/06/03 08:49:57;;;;;;;3.53;1.93;;;22.40;1.00;;;;;;5034404;28;20206;-93
2021/06/03 08:52:44;;;;;;;3.33;1.80;;;22.40;1.00;;;;;;5035315;28;20202;-92
2021/06/03 08:58:37;;;;;;;4.87;1.70;;;22.90;1.00;;;;;;5034065;28;20182;-92
2021/06/03 09:01:24;;;;;;;3.33;1.90;;;23.20;1.00;;;;;;5026414;28;20194;-94
2021/06/03 09:04:12;;;;;;;5.17;1.60;;;23.30;1.00;;;;;;5024551;28;20212;-93
2021/06/03 09:06:59;;;;;;;5.90;1.90;;;23.40;1.00;;;;;;5034711;28;20205;-93
2021/06/03 09:09:46;;;;;;;4.37;1.77;;;23.30;1.00;;;;;;5034262;28;20649;-91
2021/06/03 09:12:33;;;;;;;3.33;1.90;;;23.40;1.00;;;;;;5033741;28;20205;-93
2021/06/03 09:15:23;;;;;;;4.33;2.00;;;23.40;1.00;;;;;;5033902;28;20197;-92
2021/06/03 09:18:10;;;;;;;2.57;1.77;;;23.70;1.00;;;;;;5034045;28;20209;-92
2021/06/03 09:21:06;;;;;;;2.73;1.70;;;24.00;1.00;;;;;;5033311;28;20213;-91
2021/06/03 09:24:00;;;;;;;4.27;1.90;;;23.90;1.00;;;;;;5033589;28;20202;-91
2021/06/03 09:26:51;;;;;;;5.70;2.10;;;24.00;1.00;;;;;;5033785;28;20193;-92
2021/06/03 09:29:38;;;;;;;5.77;1.80;;;24.20;99.90;;;;;;5033783;28;20190;-92
2021/06/03 09:32:27;;;;;;;7.27;2.90;;;24.00;99.90;;;;;;5033667;28;20204;-91
2021/06/03 09:35:14;;;;;;;2.63;2.00;;;24.10;99.90;;;;;;5025118;28;20550;-92
2021/06/03 09:38:04;;;;;;;7.77;1.90;;;24.00;99.90;;;;;;5033572;28;20206;-92
2021/06/03 09:40:51;;;;;;;6.47;1.90;;;23.80;99.90;;;;;;5034283;28;20213;-92
2021/06/03 09:43:38;;;;;;;2.40;1.77;;;24.00;99.90;;;;;;5032756;28;20291;-92
2021/06/03 09:46:25;;;;;;;4.53;2.07;;;24.30;99.90;;;;;;5033093;28;20229;-92
2021/06/03 09:49:22;;;;;;;4.20;1.73;;;24.30;99.90;;;;;;5034095;28;20198;-91
2021/06/03 09:52:10;;;;;;;5.07;2.13;;;24.30;99.90;;;;;;5034028;28;20217;-92
2021/06/03 09:54:58;;;;;;;3.87;1.93;;;24.20;99.90;;;;;;5033233;28;20680;-92
2021/06/03 09:57:46;;;;;;;7.33;2.00;;;24.40;99.90;;;;;;5010894;28;20198;-91
2021/06/03 10:00:33;;;;;;;4.20;2.00;;;24.30;99.90;;;;;;5012586;28;20221;-91
2021/06/03 10:03:20;;;;;;;4.80;1.90;;;24.70;99.90;;;;;;5011989;28;20203;-92
2021/06/03 10:06:08;;;;;;;5.53;2.00;;;24.90;99.90;;;;;;5011934;28;20321;-92
2021/06/03 10:08:56;;;;;;;3.67;1.83;;;25.10;99.90;;;;;;5013011;28;20203;-91
2021/06/03 10:11:45;;;;;;;7.70;1.93;;;25.30;99.90;;;;;;5013594;28;20217;-90
2021/06/03 10:14:33;;;;;;;4.73;2.10;;;25.50;99.90;;;;;;5012743;28;20198;-89
2021/06/03 10:17:21;;;;;;;7.53;2.00;;;25.30;99.90;;;;;;5013587;28;20199;-92
2021/06/03 10:20:10;;;;;;;6.17;2.07;;;25.30;99.90;;;;;;5029376;28;20214;-91
2021/06/03 10:22:58;;;;;;;3.63;1.60;;;25.80;99.90;;;;;;5050292;28;20198;-91
2021/06/03 10:25:45;;;;;;;2.95;2.00;;;26.30;99.90;;;;;;5038862;28;20205;-91
2021/06/03 10:28:33;;;;;;;2.72;1.95;;;26.00;99.90;;;;;;5049203;28;20201;-90
2021/06/03 10:31:22;;;;;;;3.58;2.03;;;25.90;99.90;;;;;;5032750;28;20656;-90
2021/06/03 10:34:09;;;;;;;7.72;2.00;;;25.90;99.90;;;;;;5031902;28;20563;-91
2021/06/03 10:36:56;;;;;;;5.07;1.83;;;26.30;99.90;;;;;;5032535;28;20202;-91
2021/06/03 10:39:45;;;;;;;3.65;2.03;;;26.50;99.90;;;;;;5048855;28;20227;-90
2021/06/03 10:42:32;;;;;;;2.42;1.80;;;26.70;99.90;;;;;;5039461;28;20205;-90
2021/06/03 10:45:20;;;;;;;6.70;1.80;;;26.80;99.90;;;;;;5036947;28;20231;-88
2021/06/03 10:48:08;;;;;;;4.00;1.77;;;26.60;99.90;;;;;;5034623;28;20233;-89
2021/06/03 10:50:55;;;;;;;5.85;1.80;;;26.30;99.90;;;;;;5035777;28;20228;-88
2021/06/03 10:53:44;;;;;;;3.88;1.90;;;26.50;99.90;;;;;;5035781;28;20285;-88
2021/06/03 10:56:32;;;;;;;3.70;1.60;;;26.80;99.90;;;;;;5050053;28;20239;-89
2021/06/03 10:59:37;;;;;;;4.55;1.73;;;27.00;99.90;;;;;;5037492;28;20194;-90
2021/06/03 11:02:25;;;;;;;2.92;1.77;;;26.90;99.90;;;;;;5035000;28;20204;-90
2021/06/03 11:05:25;;;;;;;3.00;1.80;;;26.60;99.90;;;;;;5034837;28;20208;-90
2021/06/03 11:08:30;;;;;;;5.20;1.90;;;26.50;99.90;;;;;;5042433;28;20197;-90
2021/06/03 11:11:27;;;;;;;3.00;2.10;;;26.10;99.90;;;;;;5051473;28;20667;-90
2021/06/03 11:14:16;;;;;;;5.90;2.15;;;25.10;99.90;;;;;;5024241;28;20210;-90
2021/06/03 11:17:04;;;;;;;5.47;2.00;;;25.30;99.90;;;;;;5016078;28;20199;-90
2021/06/03 11:20:04;;;;;;;2.40;1.80;;;25.60;99.90;;;;;;5018498;28;20806;-90
2021/06/03 11:22:51;;;;;;;3.35;1.95;;;26.20;99.90;;;;;;5016368;28;20661;-90
2021/06/03 11:25:38;;;;;;;3.17;2.00;;;26.90;99.90;;;;;;5038188;28;20212;-90
2021/06/03 11:28:25;;;;;;;5.10;2.22;;;27.20;99.90;;;;;;5033254;28;20198;-91
2021/06/03 11:31:23;;;;;;;5.93;1.98;;;27.40;99.90;;;;;;5025316;28;20215;-91
2021/06/03 11:34:11;;;;;;;3.53;2.00;;;27.20;99.90;;;;;;5017340;28;20230;-90
2021/06/03 11:36:59;;;;;;;4.38;1.80;;;26.70;99.90;;;;;;5024970;28;20197;-90
2021/06/03 11:39:47;;;;;;;2.92;1.70;;;26.00;99.90;;;;;;5050010;28;20228;-91
2021/06/03 11:42:35;;;;;;;2.90;2.03;;;25.50;99.90;;;;;;5021205;28;20206;-89
2021/06/03 11:45:25;;;;;;;2.78;1.83;;;25.30;99.90;;;;;;5035267;28;20652;-88
2021/06/03 11:48:34;;;;;;;6.32;2.30;;;25.10;99.90;;;;;;5034613;28;20606;-88
2021/06/03 11:51:21;;;;;;;3.58;1.90;;;25.70;99.90;;;;;;5036885;28;20243;-89
2021/06/03 11:54:09;;;;;;;6.93;1.98;;;26.30;99.90;;;;;;5044418;28;20202;-91
2021/06/03 11:57:14;;;;;;;5.32;2.15;;;26.50;99.90;;;;;;5044516;28;20209;-90
2021/06/03 12:00:03;;;;;;;4.95;2.00;;;26.60;99.90;;;;;;5041244;28;20778;-89
2021/06/03 12:02:51;;;;;;;6.40;2.00;;;27.40;99.90;;;;;;5030300;28;20202;-89
2021/06/03 12:05:46;;;;;;;8.07;2.03;;;27.90;99.90;;;;;;5035401;28;20202;-89
2021/06/03 12:08:40;;;;;;;6.05;1.92;;;27.90;99.90;;;;;;5030902;28;20205;-88
2021/06/03 12:11:44;;;;;;;2.28;1.80;;;27.70;99.90;;;;;;5052331;28;20201;-89
2021/06/03 12:14:32;;;;;;;4.57;1.80;;;28.10;99.90;;;;;;5020861;28;20269;-89
2021/06/03 12:17:19;;;;;;;2.30;1.88;;;28.10;99.90;;;;;;5045624;28;20224;-89
2021/06/03 12:20:07;;;;;;;4.68;2.13;;;27.80;99.90;;;;;;5053658;28;20224;-89
2021/06/03 12:23:01;;;;;;;2.63;1.60;;;28.20;99.90;;;;;;5054497;28;20240;-90
2021/06/03 12:25:49;;;;;;;4.47;2.25;;;28.40;99.90;;;;;;5014539;28;20222;-90
2021/06/03 12:28:37;;;;;;;5.05;1.63;;;28.80;99.90;;;;;;5052932;28;20201;-89
2021/06/03 12:31:25;;;;;;;4.20;1.85;;;28.60;99.90;;;;;;5053398;28;20213;-91
2021/06/03 12:34:18;;;;;;;6.07;1.92;;;28.70;99.90;;;;;;5035207;28;20237;-93
2021/06/03 12:37:19;;;;;;;4.57;1.90;;;28.40;99.90;;;;;;5049318;28;20204;-90
2021/06/03 12:40:20;;;;;;;2.88;2.05;;;27.80;99.90;;;;;;5040507;28;20224;-91
2021/06/03 12:43:09;;;;;;;5.78;1.98;;;27.20;99.90;;;;;;5019256;28;20194;-91
2021/06/03 12:45:56;;;;;;;3.78;1.98;;;27.00;99.90;;;;;;5053172;28;20575;-90
2021/06/03 12:48:43;;;;;;;8.88;1.77;;;26.90;99.90;;;;;;4994853;28;20282;-90
2021/06/03 12:51:30;;;;;;;3.78;1.60;;;26.80;99.90;;;;;;4994884;28;20203;-90
2021/06/03 12:54:17;;;;;;;3.38;1.63;;;26.90;99.90;;;;;;5007377;28;20211;-90
2021/06/03 12:57:07;;;;;;;8.18;2.00;;;27.40;99.90;;;;;;5034026;28;20201;-90
2021/06/03 12:59:56;;;;;;;3.35;1.85;;;27.20;99.90;;;;;;5013709;28;20230;-91
2021/06/03 13:02:47;;;;;;;5.88;1.80;;;27.40;99.90;;;;;;5019329;28;20205;-92
2021/06/03 13:05:34;;;;;;;2.80;1.70;;;27.80;99.90;;;;;;5028830;28;20194;-91
2021/06/03 13:08:21;;;;;;;3.63;1.88;;;27.90;99.90;;;;;;5030740;28;20190;-91
2021/06/03 13:11:09;;;;;;;3.53;1.63;;;27.60;99.90;;;;;;5023739;28;20248;-90
2021/06/03 13:14:10;;;;;;;3.83;1.90;;;27.50;99.90;;;;;;5019777;28;20244;-91
2021/06/03 13:17:03;;;;;;;3.22;1.60;;;27.80;99.90;;;;;;5003649;28;20647;-91
2021/06/03 13:19:50;;;;;;;5.30;1.70;;;28.30;99.90;;;;;;5034959;28;20194;-91
2021/06/03 13:22:37;;;;;;;5.47;1.80;;;28.60;99.90;;;;;;4989647;28;20206;-91
2021/06/03 13:25:25;;;;;;;2.03;1.60;;;28.90;99.90;;;;;;5008278;28;20201;-91
2021/06/03 13:28:16;;;;;;;3.00;1.50;;;28.90;99.90;;;;;;5005533;28;20562;-92
2021/06/03 13:31:06;;;;;;;9.50;1.80;;;29.00;99.90;;;;;;5022315;28;20207;-91
2021/06/03 13:33:54;;;;;;;4.07;1.80;;;29.20;99.90;;;;;;5024358;28;20194;-90
2021/06/03 13:36:41;;;;;;;3.55;1.60;;;29.40;99.90;;;;;;5033171;28;20290;-91
2021/06/03 13:39:29;;;;;;;5.40;1.80;;;29.40;99.90;;;;;;5027161;28;20194;-89
2021/06/03 13:42:19;;;;;;;4.95;1.73;;;29.40;99.90;;;;;;5032479;28;20201;-90
2021/06/03 13:45:08;;;;;;;2.60;1.60;;;29.10;99.90;;;;;;5034517;28;20201;-90
2021/06/03 13:47:57;;;;;;;4.07;1.67;;;28.60;99.90;;;;;;5025161;28;20716;-89
2021/06/03 13:50:54;;;;;;;3.60;1.55;;;28.50;99.90;;;;;;5032968;28;20218;-89
2021/06/03 13:53:42;;;;;;;3.15;1.63;;;28.90;99.90;;;;;;5033194;28;20252;-90
2021/06/03 13:56:29;;;;;;;3.83;1.88;;;29.30;99.90;;;;;;5022296;28;20198;-90
2021/06/03 13:59:16;;;;;;;3.15;1.80;;;29.30;99.90;;;;;;5043652;28;20204;-90
2021/06/03 14:02:03;;;;;;;3.10;1.58;;;29.00;99.90;;;;;;5028365;28;20194;-88
2021/06/03 14:04:51;;;;;;;3.30;1.77;;;28.70;99.90;;;;;;5040739;28;20224;-89
2021/06/03 14:07:38;;;;;;;6.38;2.00;;;28.10;99.90;;;;;;5020947;28;20204;-89
2021/06/03 14:10:25;;;;;;;3.78;1.70;;;27.80;99.90;;;;;;5042055;28;20244;-90
2021/06/03 14:13:12;;;;;;;5.65;1.85;;;27.70;99.90;;;;;;5034042;28;20205;-91
2021/06/03 14:16:00;;;;;;;3.40;2.00;;;27.80;99.90;;;;;;5039273;28;20193;-90
2021/06/03 14:18:47;;;;;;;3.33;1.95;;;28.00;99.90;;;;;;5051972;28;20559;-91
2021/06/03 14:21:35;;;;;;;2.78;1.60;;;28.20;99.90;;;;;;5044625;28;20202;-90
2021/06/03 14:24:34;;;;;;;4.43;1.90;;;28.60;99.90;;;;;;5044070;28;20194;-90
2021/06/03 14:27:23;;;;;;;2.90;1.80;;;28.90;99.90;;;;;;5033751;28;20787;-90
2021/06/03 14:30:13;;;;;;;5.95;1.63;;;29.00;99.90;;;;;;5036718;28;20233;-90
2021/06/03 14:33:01;;;;;;;3.42;1.50;;;29.50;99.90;;;;;;5055078;28;20201;-91
2021/06/03 14:35:49;;;;;;;4.40;1.90;;;29.90;99.90;;;;;;5038170;28;20244;-90
2021/06/03 14:38:37;;;;;;;4.28;2.00;;;29.70;99.90;;;;;;5017038;28;20226;-90
2021/06/03 14:41:24;;;;;;;5.47;1.92;;;30.00;99.90;;;;;;5022423;28;20201;-89
2021/06/03 14:44:11;;;;;;;3.28;1.92;;;29.80;99.90;;;;;;5035985;28;20205;-89
2021/06/03 14:46:58;;;;;;;2.22;1.65;;;30.00;99.90;;;;;;5032795;28;20315;-90
2021/06/03 14:49:47;;;;;;;4.57;1.80;;;30.00;99.90;;;;;;5034199;28;20225;-90